Arbyrd, Missouri
Current Conditions -  °F | °C
As of 1:53 AM on Friday 24 Oct 2014 (Local Time) from KHKA Reporting Station
Clear Clear  
Wind Chill: 46°   Ceiling: Unl
Heat Index: 46°   Visibility: 10mi
Dew Point: 44°   Wind: 3mph
Humidity: 93%   Direction: 180°S
Pressure: 30.13"   Gusts: NA
Location:  36.05°N, 90.24°W
Report Text: KHKA 240653Z AUTO 18003KT 10SM CLR 08/07 A3013 RMK AO2 SLP203 T00780067
Loading
Personal Weather Stations






























Interactive Weather Map New forecast layout! Learn more

10-Day Weather Forecast

Advertisements
Track Severe Weather on mobile